sensor_id;sensor_type;location;lat;lon;timestamp;P1;durP1;ratioP1;P2;durP2;ratioP2
76357;SDS011;65185;21.060;105.826;2023-02-24T00:01:40;66.85;;;35.58;;
76357;SDS011;65185;21.060;105.826;2023-02-24T00:04:11;67.38;;;35.63;;
76357;SDS011;65185;21.060;105.826;2023-02-24T00:06:40;71.25;;;38.00;;
76357;SDS011;65185;21.060;105.826;2023-02-24T00:11:41;68.82;;;34.75;;
76357;SDS011;65185;21.060;105.826;2023-02-24T00:14:13;61.13;;;33.47;;
76357;SDS011;65185;21.060;105.826;2023-02-24T00:16:42;73.60;;;39.35;;
76357;SDS011;65185;21.060;105.826;2023-02-24T00:19:10;65.72;;;36.35;;
76357;SDS011;65185;21.060;105.826;2023-02-24T00:21:39;62.33;;;36.42;;
76357;SDS011;65185;21.060;105.826;2023-02-24T00:24:06;60.85;;;36.85;;
76357;SDS011;65185;21.060;105.826;2023-02-24T00:26:33;68.55;;;37.05;;
76357;SDS011;65185;21.060;105.826;2023-02-24T00:29:00;75.53;;;39.83;;
76357;SDS011;65185;21.060;105.826;2023-02-24T00:31:30;66.88;;;36.97;;
76357;SDS011;65185;21.060;105.826;2023-02-24T00:33:58;76.03;;;38.88;;
76357;SDS011;65185;21.060;105.826;2023-02-24T00:36:27;86.75;;;44.53;;
76357;SDS011;65185;21.060;105.826;2023-02-24T00:38:56;89.10;;;48.28;;
76357;SDS011;65185;21.060;105.826;2023-02-24T00:41:25;91.55;;;48.25;;
76357;SDS011;65185;21.060;105.826;2023-02-24T00:43:54;79.30;;;44.83;;
76357;SDS011;65185;21.060;105.826;2023-02-24T00:46:31;75.47;;;40.53;;
76357;SDS011;65185;21.060;105.826;2023-02-24T00:49:18;74.72;;;38.78;;
76357;SDS011;65185;21.060;105.826;2023-02-24T00:51:47;77.55;;;40.33;;
76357;SDS011;65185;21.060;105.826;2023-02-24T00:54:15;79.45;;;38.67;;
76357;SDS011;65185;21.060;105.826;2023-02-24T00:56:44;72.60;;;37.70;;
76357;SDS011;65185;21.060;105.826;2023-02-24T00:59:13;68.10;;;34.90;;
76357;SDS011;65185;21.060;105.826;2023-02-24T01:01:43;67.68;;;36.17;;
76357;SDS011;65185;21.060;105.826;2023-02-24T01:04:10;76.38;;;38.67;;
76357;SDS011;65185;21.060;105.826;2023-02-24T01:06:39;72.75;;;36.53;;
76357;SDS011;65185;21.060;105.826;2023-02-24T01:09:11;90.40;;;45.00;;
76357;SDS011;65185;21.060;105.826;2023-02-24T01:11:41;77.38;;;40.78;;
76357;SDS011;65185;21.060;105.826;2023-02-24T01:14:28;67.53;;;36.60;;
76357;SDS011;65185;21.060;105.826;2023-02-24T01:16:56;77.00;;;40.67;;
76357;SDS011;65185;21.060;105.826;2023-02-24T01:19:25;88.35;;;45.42;;
76357;SDS011;65185;21.060;105.826;2023-02-24T01:21:56;89.32;;;48.60;;
76357;SDS011;65185;21.060;105.826;2023-02-24T01:24:26;84.93;;;46.35;;
76357;SDS011;65185;21.060;105.826;2023-02-24T01:26:54;85.47;;;46.45;;
76357;SDS011;65185;21.060;105.826;2023-02-24T01:29:21;90.35;;;49.20;;
76357;SDS011;65185;21.060;105.826;2023-02-24T01:31:50;97.45;;;52.75;;
76357;SDS011;65185;21.060;105.826;2023-02-24T01:34:23;99.22;;;52.25;;
76357;SDS011;65185;21.060;105.826;2023-02-24T01:36:51;93.00;;;51.83;;
76357;SDS011;65185;21.060;105.826;2023-02-24T01:39:21;99.53;;;55.38;;
76357;SDS011;65185;21.060;105.826;2023-02-24T01:41:48;94.15;;;54.42;;
76357;SDS011;65185;21.060;105.826;2023-02-24T01:46:47;106.97;;;59.63;;
76357;SDS011;65185;21.060;105.826;2023-02-24T01:49:18;112.43;;;62.88;;
76357;SDS011;65185;21.060;105.826;2023-02-24T01:52:08;112.88;;;63.30;;
76357;SDS011;65185;21.060;105.826;2023-02-24T01:54:47;101.40;;;56.72;;
76357;SDS011;65185;21.060;105.826;2023-02-24T01:57:19;106.30;;;57.58;;
76357;SDS011;65185;21.060;105.826;2023-02-24T01:59:49;109.00;;;61.45;;
76357;SDS011;65185;21.060;105.826;2023-02-24T02:02:18;128.07;;;69.05;;
76357;SDS011;65185;21.060;105.826;2023-02-24T02:07:19;113.80;;;64.57;;
76357;SDS011;65185;21.060;105.826;2023-02-24T02:09:48;103.38;;;57.20;;
76357;SDS011;65185;21.060;105.826;2023-02-24T02:12:19;100.72;;;59.25;;
76357;SDS011;65185;21.060;105.826;2023-02-24T02:14:47;96.60;;;50.08;;
76357;SDS011;65185;21.060;105.826;2023-02-24T02:25:24;85.45;;;45.75;;
76357;SDS011;65185;21.060;105.826;2023-02-24T02:37:27;96.15;;;56.05;;
76357;SDS011;65185;21.060;105.826;2023-02-24T02:40:17;109.85;;;61.10;;
76357;SDS011;65185;21.060;105.826;2023-02-24T02:42:56;116.68;;;66.40;;
76357;SDS011;65185;21.060;105.826;2023-02-24T02:45:37;101.43;;;58.47;;
76357;SDS011;65185;21.060;105.826;2023-02-24T02:48:15;96.15;;;55.35;;
76357;SDS011;65185;21.060;105.826;2023-02-24T02:50:56;99.65;;;56.17;;
76357;SDS011;65185;21.060;105.826;2023-02-24T03:01:07;101.35;;;55.72;;
76357;SDS011;65185;21.060;105.826;2023-02-24T03:03:40;89.57;;;50.95;;
76357;SDS011;65185;21.060;105.826;2023-02-24T03:06:17;101.65;;;56.47;;
76357;SDS011;65185;21.060;105.826;2023-02-24T03:09:06;93.13;;;53.08;;
76357;SDS011;65185;21.060;105.826;2023-02-24T03:11:43;96.32;;;53.95;;
76357;SDS011;65185;21.060;105.826;2023-02-24T03:14:21;92.00;;;51.25;;
76357;SDS011;65185;21.060;105.826;2023-02-24T03:17:11;88.18;;;51.00;;
76357;SDS011;65185;21.060;105.826;2023-02-24T03:19:46;94.07;;;51.22;;
76357;SDS011;65185;21.060;105.826;2023-02-24T03:22:20;91.05;;;50.47;;
76357;SDS011;65185;21.060;105.826;2023-02-24T03:24:52;84.20;;;45.60;;
76357;SDS011;65185;21.060;105.826;2023-02-24T03:27:26;88.25;;;49.22;;
76357;SDS011;65185;21.060;105.826;2023-02-24T03:30:13;94.53;;;49.63;;
76357;SDS011;65185;21.060;105.826;2023-02-24T03:32:48;85.93;;;48.33;;
76357;SDS011;65185;21.060;105.826;2023-02-24T03:35:31;90.00;;;49.75;;
76357;SDS011;65185;21.060;105.826;2023-02-24T03:38:03;94.70;;;50.30;;
76357;SDS011;65185;21.060;105.826;2023-02-24T03:40:31;111.50;;;64.72;;
76357;SDS011;65185;21.060;105.826;2023-02-24T03:43:05;118.05;;;68.95;;
76357;SDS011;65185;21.060;105.826;2023-02-24T03:45:38;131.05;;;71.15;;
76357;SDS011;65185;21.060;105.826;2023-02-24T03:48:07;132.27;;;72.47;;
76357;SDS011;65185;21.060;105.826;2023-02-24T03:50:37;138.25;;;75.85;;
76357;SDS011;65185;21.060;105.826;2023-02-24T03:59:09;113.70;;;62.40;;
76357;SDS011;65185;21.060;105.826;2023-02-24T04:02:07;107.88;;;61.05;;
76357;SDS011;65185;21.060;105.826;2023-02-24T04:18:03;112.30;;;63.45;;
76357;SDS011;65185;21.060;105.826;2023-02-24T04:20:38;132.95;;;68.55;;
76357;SDS011;65185;21.060;105.826;2023-02-24T04:23:13;125.35;;;65.80;;
76357;SDS011;65185;21.060;105.826;2023-02-24T04:25:43;125.32;;;68.30;;
76357;SDS011;65185;21.060;105.826;2023-02-24T04:28:13;112.40;;;65.43;;
76357;SDS011;65185;21.060;105.826;2023-02-24T04:30:45;109.10;;;63.40;;
76357;SDS011;65185;21.060;105.826;2023-02-24T04:33:15;110.13;;;60.50;;
76357;SDS011;65185;21.060;105.826;2023-02-24T04:35:47;122.97;;;66.53;;
76357;SDS011;65185;21.060;105.826;2023-02-24T04:38:16;113.18;;;62.22;;
76357;SDS011;65185;21.060;105.826;2023-02-24T04:40:43;111.70;;;62.75;;
76357;SDS011;65185;21.060;105.826;2023-02-24T04:43:10;108.55;;;61.20;;
76357;SDS011;65185;21.060;105.826;2023-02-24T04:45:37;113.25;;;64.20;;
76357;SDS011;65185;21.060;105.826;2023-02-24T04:48:04;109.85;;;62.33;;
76357;SDS011;65185;21.060;105.826;2023-02-24T04:50:38;129.13;;;70.32;;
76357;SDS011;65185;21.060;105.826;2023-02-24T04:53:08;124.00;;;68.93;;
76357;SDS011;65185;21.060;105.826;2023-02-24T04:55:38;123.20;;;70.90;;
76357;SDS011;65185;21.060;105.826;2023-02-24T04:58:16;112.43;;;65.80;;
76357;SDS011;65185;21.060;105.826;2023-02-24T05:00:48;123.55;;;69.38;;
76357;SDS011;65185;21.060;105.826;2023-02-24T05:03:17;124.00;;;68.88;;
76357;SDS011;65185;21.060;105.826;2023-02-24T05:05:49;108.78;;;65.03;;
76357;SDS011;65185;21.060;105.826;2023-02-24T05:08:21;115.95;;;67.22;;
76357;SDS011;65185;21.060;105.826;2023-02-24T05:10:49;110.75;;;63.75;;
76357;SDS011;65185;21.060;105.826;2023-02-24T05:13:18;120.97;;;67.07;;
76357;SDS011;65185;21.060;105.826;2023-02-24T05:15:51;102.53;;;58.95;;
76357;SDS011;65185;21.060;105.826;2023-02-24T05:18:20;105.10;;;57.90;;
76357;SDS011;65185;21.060;105.826;2023-02-24T05:20:51;110.07;;;62.78;;
76357;SDS011;65185;21.060;105.826;2023-02-24T05:23:46;108.05;;;61.00;;
76357;SDS011;65185;21.060;105.826;2023-02-24T05:26:17;104.22;;;62.60;;
76357;SDS011;65185;21.060;105.826;2023-02-24T05:28:45;114.32;;;65.40;;
76357;SDS011;65185;21.060;105.826;2023-02-24T05:31:21;113.78;;;64.90;;
76357;SDS011;65185;21.060;105.826;2023-02-24T05:34:03;118.93;;;67.70;;
76357;SDS011;65185;21.060;105.826;2023-02-24T05:36:34;121.63;;;71.93;;
76357;SDS011;65185;21.060;105.826;2023-02-24T05:39:05;116.90;;;69.78;;
76357;SDS011;65185;21.060;105.826;2023-02-24T05:41:37;117.93;;;69.53;;
76357;SDS011;65185;21.060;105.826;2023-02-24T05:44:07;123.65;;;72.47;;
76357;SDS011;65185;21.060;105.826;2023-02-24T05:46:39;131.75;;;76.10;;
76357;SDS011;65185;21.060;105.826;2023-02-24T05:49:16;120.30;;;70.65;;
76357;SDS011;65185;21.060;105.826;2023-02-24T05:51:49;119.10;;;70.43;;
76357;SDS011;65185;21.060;105.826;2023-02-24T05:54:21;117.68;;;68.90;;
76357;SDS011;65185;21.060;105.826;2023-02-24T05:56:53;113.80;;;69.20;;
76357;SDS011;65185;21.060;105.826;2023-02-24T05:59:24;115.43;;;68.60;;
76357;SDS011;65185;21.060;105.826;2023-02-24T06:01:57;116.15;;;68.35;;
76357;SDS011;65185;21.060;105.826;2023-02-24T06:04:34;112.88;;;67.90;;
76357;SDS011;65185;21.060;105.826;2023-02-24T06:09:47;116.00;;;68.72;;
76357;SDS011;65185;21.060;105.826;2023-02-24T06:12:21;107.43;;;64.50;;
76357;SDS011;65185;21.060;105.826;2023-02-24T06:14:58;115.03;;;69.45;;
76357;SDS011;65185;21.060;105.826;2023-02-24T06:17:27;110.38;;;65.05;;
76357;SDS011;65185;21.060;105.826;2023-02-24T06:19:54;110.88;;;64.80;;
76357;SDS011;65185;21.060;105.826;2023-02-24T06:22:23;61.42;;;35.60;;
76357;SDS011;65185;21.060;105.826;2023-02-24T06:24:52;53.22;;;28.90;;
76357;SDS011;65185;21.060;105.826;2023-02-24T06:27:21;42.45;;;24.67;;
76357;SDS011;65185;21.060;105.826;2023-02-24T06:29:49;38.58;;;19.85;;
76357;SDS011;65185;21.060;105.826;2023-02-24T06:32:22;31.45;;;16.58;;
76357;SDS011;65185;21.060;105.826;2023-02-24T06:34:51;22.83;;;13.25;;
76357;SDS011;65185;21.060;105.826;2023-02-24T06:37:18;20.95;;;10.95;;
76357;SDS011;65185;21.060;105.826;2023-02-24T06:39:47;19.83;;;10.35;;
76357;SDS011;65185;21.060;105.826;2023-02-24T06:42:14;18.50;;;9.32;;
76357;SDS011;65185;21.060;105.826;2023-02-24T06:44:41;17.60;;;8.82;;
76357;SDS011;65185;21.060;105.826;2023-02-24T06:47:09;18.77;;;8.93;;
76357;SDS011;65185;21.060;105.826;2023-02-24T06:49:39;16.48;;;10.02;;
76357;SDS011;65185;21.060;105.826;2023-02-24T06:52:07;18.48;;;9.43;;
76357;SDS011;65185;21.060;105.826;2023-02-24T06:54:35;13.88;;;8.13;;
76357;SDS011;65185;21.060;105.826;2023-02-24T06:57:02;18.45;;;8.40;;
76357;SDS011;65185;21.060;105.826;2023-02-24T06:59:29;15.95;;;8.52;;
76357;SDS011;65185;21.060;105.826;2023-02-24T07:01:57;17.95;;;8.30;;
76357;SDS011;65185;21.060;105.826;2023-02-24T07:04:27;16.58;;;7.95;;
76357;SDS011;65185;21.060;105.826;2023-02-24T07:06:55;17.02;;;7.70;;
76357;SDS011;65185;21.060;105.826;2023-02-24T07:09:27;17.63;;;9.65;;
76357;SDS011;65185;21.060;105.826;2023-02-24T07:11:55;22.30;;;10.07;;
76357;SDS011;65185;21.060;105.826;2023-02-24T07:14:23;18.00;;;9.32;;
76357;SDS011;65185;21.060;105.826;2023-02-24T07:16:53;16.80;;;8.65;;
76357;SDS011;65185;21.060;105.826;2023-02-24T07:19:27;12.13;;;7.13;;
76357;SDS011;65185;21.060;105.826;2023-02-24T07:21:58;12.95;;;6.45;;
76357;SDS011;65185;21.060;105.826;2023-02-24T07:24:27;17.48;;;7.63;;
76357;SDS011;65185;21.060;105.826;2023-02-24T07:27:13;15.18;;;6.78;;
76357;SDS011;65185;21.060;105.826;2023-02-24T07:29:47;17.05;;;9.35;;
76357;SDS011;65185;21.060;105.826;2023-02-24T07:32:15;19.63;;;9.75;;
76357;SDS011;65185;21.060;105.826;2023-02-24T07:34:42;18.35;;;9.07;;
76357;SDS011;65185;21.060;105.826;2023-02-24T07:37:10;16.58;;;8.63;;
76357;SDS011;65185;21.060;105.826;2023-02-24T07:39:37;15.90;;;8.45;;
76357;SDS011;65185;21.060;105.826;2023-02-24T07:42:08;15.90;;;8.75;;
76357;SDS011;65185;21.060;105.826;2023-02-24T07:44:37;16.38;;;7.80;;
76357;SDS011;65185;21.060;105.826;2023-02-24T07:47:05;18.83;;;8.50;;
76357;SDS011;65185;21.060;105.826;2023-02-24T07:49:32;16.45;;;8.38;;
76357;SDS011;65185;21.060;105.826;2023-02-24T07:52:00;14.70;;;7.28;;
76357;SDS011;65185;21.060;105.826;2023-02-24T07:54:27;12.18;;;6.38;;
76357;SDS011;65185;21.060;105.826;2023-02-24T07:56:55;17.20;;;8.93;;
76357;SDS011;65185;21.060;105.826;2023-02-24T07:59:24;16.70;;;7.50;;
76357;SDS011;65185;21.060;105.826;2023-02-24T08:01:53;16.60;;;7.88;;
76357;SDS011;65185;21.060;105.826;2023-02-24T08:04:22;17.35;;;9.32;;
76357;SDS011;65185;21.060;105.826;2023-02-24T08:06:54;18.85;;;9.45;;
76357;SDS011;65185;21.060;105.826;2023-02-24T08:09:26;17.77;;;8.55;;
76357;SDS011;65185;21.060;105.826;2023-02-24T08:12:19;15.73;;;7.70;;
76357;SDS011;65185;21.060;105.826;2023-02-24T08:14:48;12.88;;;6.32;;
76357;SDS011;65185;21.060;105.826;2023-02-24T08:17:21;12.25;;;5.60;;
76357;SDS011;65185;21.060;105.826;2023-02-24T08:19:51;17.25;;;5.60;;
76357;SDS011;65185;21.060;105.826;2023-02-24T08:22:39;21.10;;;6.32;;
76357;SDS011;65185;21.060;105.826;2023-02-24T08:25:11;17.05;;;5.97;;
76357;SDS011;65185;21.060;105.826;2023-02-24T08:27:43;18.35;;;6.10;;
76357;SDS011;65185;21.060;105.826;2023-02-24T08:30:11;15.05;;;6.07;;
76357;SDS011;65185;21.060;105.826;2023-02-24T08:33:00;13.10;;;5.28;;
76357;SDS011;65185;21.060;105.826;2023-02-24T08:35:28;12.23;;;5.57;;
76357;SDS011;65185;21.060;105.826;2023-02-24T08:38:04;15.23;;;5.50;;
76357;SDS011;65185;21.060;105.826;2023-02-24T08:40:40;14.82;;;5.32;;
76357;SDS011;65185;21.060;105.826;2023-02-24T08:43:26;13.10;;;5.40;;
76357;SDS011;65185;21.060;105.826;2023-02-24T08:48:39;15.55;;;5.70;;
76357;SDS011;65185;21.060;105.826;2023-02-24T08:53:36;17.55;;;6.30;;
76357;SDS011;65185;21.060;105.826;2023-02-24T08:56:08;17.38;;;5.97;;
76357;SDS011;65185;21.060;105.826;2023-02-24T08:58:40;18.10;;;6.03;;
76357;SDS011;65185;21.060;105.826;2023-02-24T09:01:13;12.40;;;5.72;;
76357;SDS011;65185;21.060;105.826;2023-02-24T09:03:47;13.70;;;5.55;;
76357;SDS011;65185;21.060;105.826;2023-02-24T09:06:46;18.02;;;7.20;;
76357;SDS011;65185;21.060;105.826;2023-02-24T09:09:14;16.05;;;6.47;;
76357;SDS011;65185;21.060;105.826;2023-02-24T09:11:48;19.25;;;6.95;;
76357;SDS011;65185;21.060;105.826;2023-02-24T09:14:24;15.80;;;6.40;;
76357;SDS011;65185;21.060;105.826;2023-02-24T09:17:01;22.35;;;7.18;;
76357;SDS011;65185;21.060;105.826;2023-02-24T09:19:37;16.60;;;6.32;;
76357;SDS011;65185;21.060;105.826;2023-02-24T09:22:11;16.17;;;6.82;;
76357;SDS011;65185;21.060;105.826;2023-02-24T09:24:40;15.35;;;7.13;;
76357;SDS011;65185;21.060;105.826;2023-02-24T09:27:07;16.70;;;7.28;;
76357;SDS011;65185;21.060;105.826;2023-02-24T09:29:34;16.85;;;6.47;;
76357;SDS011;65185;21.060;105.826;2023-02-24T09:32:13;12.65;;;6.20;;
76357;SDS011;65185;21.060;105.826;2023-02-24T09:34:41;21.58;;;7.05;;
76357;SDS011;65185;21.060;105.826;2023-02-24T09:37:12;12.65;;;6.38;;
76357;SDS011;65185;21.060;105.826;2023-02-24T09:39:51;24.90;;;7.15;;
76357;SDS011;65185;21.060;105.826;2023-02-24T09:42:28;19.10;;;8.40;;
76357;SDS011;65185;21.060;105.826;2023-02-24T09:45:20;13.63;;;7.35;;
76357;SDS011;65185;21.060;105.826;2023-02-24T09:48:21;20.75;;;7.53;;
76357;SDS011;65185;21.060;105.826;2023-02-24T09:51:11;16.95;;;8.43;;
76357;SDS011;65185;21.060;105.826;2023-02-24T09:53:51;19.23;;;8.32;;
76357;SDS011;65185;21.060;105.826;2023-02-24T09:56:41;13.68;;;7.03;;
76357;SDS011;65185;21.060;105.826;2023-02-24T10:00:14;12.18;;;6.43;;
76357;SDS011;65185;21.060;105.826;2023-02-24T10:03:07;14.90;;;7.38;;
76357;SDS011;65185;21.060;105.826;2023-02-24T10:05:56;16.92;;;8.70;;
76357;SDS011;65185;21.060;105.826;2023-02-24T10:08:47;20.15;;;10.57;;
76357;SDS011;65185;21.060;105.826;2023-02-24T10:11:20;24.15;;;11.05;;
76357;SDS011;65185;21.060;105.826;2023-02-24T10:14:02;30.45;;;12.02;;
76357;SDS011;65185;21.060;105.826;2023-02-24T10:16:36;23.30;;;10.27;;
76357;SDS011;65185;21.060;105.826;2023-02-24T10:24:22;19.95;;;11.20;;
76357;SDS011;65185;21.060;105.826;2023-02-24T10:26:56;23.65;;;11.65;;
76357;SDS011;65185;21.060;105.826;2023-02-24T10:35:01;28.95;;;14.52;;
76357;SDS011;65185;21.060;105.826;2023-02-24T10:37:30;31.33;;;15.95;;
76357;SDS011;65185;21.060;105.826;2023-02-24T10:40:03;28.02;;;14.50;;
76357;SDS011;65185;21.060;105.826;2023-02-24T10:42:34;30.02;;;14.40;;
76357;SDS011;65185;21.060;105.826;2023-02-24T10:47:56;31.08;;;15.00;;
76357;SDS011;65185;21.060;105.826;2023-02-24T10:53:02;32.22;;;14.32;;
76357;SDS011;65185;21.060;105.826;2023-02-24T10:55:50;27.70;;;14.57;;
76357;SDS011;65185;21.060;105.826;2023-02-24T10:58:22;28.52;;;15.00;;
76357;SDS011;65185;21.060;105.826;2023-02-24T11:01:31;29.13;;;14.35;;
76357;SDS011;65185;21.060;105.826;2023-02-24T11:04:17;32.72;;;16.05;;
76357;SDS011;65185;21.060;105.826;2023-02-24T11:07:06;32.33;;;16.15;;
76357;SDS011;65185;21.060;105.826;2023-02-24T11:09:48;35.22;;;16.55;;
76357;SDS011;65185;21.060;105.826;2023-02-24T11:12:47;36.92;;;17.70;;
76357;SDS011;65185;21.060;105.826;2023-02-24T11:15:34;36.88;;;17.17;;
76357;SDS011;65185;21.060;105.826;2023-02-24T11:18:27;39.85;;;18.95;;
76357;SDS011;65185;21.060;105.826;2023-02-24T11:21:00;37.83;;;17.58;;
76357;SDS011;65185;21.060;105.826;2023-02-24T11:23:29;31.25;;;16.05;;
76357;SDS011;65185;21.060;105.826;2023-02-24T11:26:00;32.63;;;15.80;;
76357;SDS011;65185;21.060;105.826;2023-02-24T11:40:43;49.92;;;25.52;;
76357;SDS011;65185;21.060;105.826;2023-02-24T11:43:18;62.42;;;30.25;;
76357;SDS011;65185;21.060;105.826;2023-02-24T11:48:59;44.38;;;22.63;;
76357;SDS011;65185;21.060;105.826;2023-02-24T11:51:33;44.35;;;22.40;;
76357;SDS011;65185;21.060;105.826;2023-02-24T12:01:54;36.33;;;16.25;;
76357;SDS011;65185;21.060;105.826;2023-02-24T12:04:37;33.25;;;17.15;;
76357;SDS011;65185;21.060;105.826;2023-02-24T12:09:58;37.85;;;16.42;;
76357;SDS011;65185;21.060;105.826;2023-02-24T12:12:34;29.48;;;14.82;;
76357;SDS011;65185;21.060;105.826;2023-02-24T12:15:04;33.45;;;15.40;;
76357;SDS011;65185;21.060;105.826;2023-02-24T12:23:13;35.90;;;17.00;;
76357;SDS011;65185;21.060;105.826;2023-02-24T12:28:45;32.22;;;16.30;;
76357;SDS011;65185;21.060;105.826;2023-02-24T12:45:59;31.75;;;15.38;;
76357;SDS011;65185;21.060;105.826;2023-02-24T12:51:49;31.15;;;14.77;;
76357;SDS011;65185;21.060;105.826;2023-02-24T12:54:33;31.45;;;14.00;;
76357;SDS011;65185;21.060;105.826;2023-02-24T12:57:26;27.75;;;14.55;;
76357;SDS011;65185;21.060;105.826;2023-02-24T13:00:04;31.27;;;15.82;;
76357;SDS011;65185;21.060;105.826;2023-02-24T13:05:46;33.63;;;16.38;;
76357;SDS011;65185;21.060;105.826;2023-02-24T13:13:58;31.35;;;17.52;;
76357;SDS011;65185;21.060;105.826;2023-02-24T13:16:47;40.13;;;20.20;;
76357;SDS011;65185;21.060;105.826;2023-02-24T13:19:26;35.83;;;19.83;;
76357;SDS011;65185;21.060;105.826;2023-02-24T13:24:59;35.25;;;18.15;;
76357;SDS011;65185;21.060;105.826;2023-02-24T13:27:40;41.28;;;18.05;;
76357;SDS011;65185;21.060;105.826;2023-02-24T13:37:42;35.22;;;17.02;;
76357;SDS011;65185;21.060;105.826;2023-02-24T13:50:17;31.50;;;16.77;;
76357;SDS011;65185;21.060;105.826;2023-02-24T13:57:56;37.72;;;21.85;;
76357;SDS011;65185;21.060;105.826;2023-02-24T14:00:32;37.97;;;21.95;;
76357;SDS011;65185;21.060;105.826;2023-02-24T14:03:09;39.63;;;22.10;;
76357;SDS011;65185;21.060;105.826;2023-02-24T14:05:42;34.30;;;20.38;;
76357;SDS011;65185;21.060;105.826;2023-02-24T14:08:20;35.70;;;20.15;;
76357;SDS011;65185;21.060;105.826;2023-02-24T14:14:28;27.73;;;15.48;;
76357;SDS011;65185;21.060;105.826;2023-02-24T14:16:56;29.70;;;15.63;;
76357;SDS011;65185;21.060;105.826;2023-02-24T14:19:23;31.17;;;16.48;;
76357;SDS011;65185;21.060;105.826;2023-02-24T14:21:51;29.80;;;17.23;;
76357;SDS011;65185;21.060;105.826;2023-02-24T14:24:22;32.53;;;18.23;;
76357;SDS011;65185;21.060;105.826;2023-02-24T14:26:57;35.80;;;20.38;;
76357;SDS011;65185;21.060;105.826;2023-02-24T14:29:27;44.50;;;22.95;;
76357;SDS011;65185;21.060;105.826;2023-02-24T14:31:58;45.95;;;23.85;;
76357;SDS011;65185;21.060;105.826;2023-02-24T14:34:26;44.40;;;24.50;;
76357;SDS011;65185;21.060;105.826;2023-02-24T14:36:56;46.88;;;25.77;;
76357;SDS011;65185;21.060;105.826;2023-02-24T14:39:26;42.63;;;23.17;;
76357;SDS011;65185;21.060;105.826;2023-02-24T14:44:33;42.25;;;23.52;;
76357;SDS011;65185;21.060;105.826;2023-02-24T14:47:08;35.83;;;20.25;;
76357;SDS011;65185;21.060;105.826;2023-02-24T14:49:37;37.40;;;20.35;;
76357;SDS011;65185;21.060;105.826;2023-02-24T14:52:13;37.67;;;20.80;;
76357;SDS011;65185;21.060;105.826;2023-02-24T14:54:50;42.97;;;21.00;;
76357;SDS011;65185;21.060;105.826;2023-02-24T14:57:26;38.67;;;20.98;;
76357;SDS011;65185;21.060;105.826;2023-02-24T15:00:05;43.30;;;21.73;;
76357;SDS011;65185;21.060;105.826;2023-02-24T15:03:15;43.28;;;23.77;;
76357;SDS011;65185;21.060;105.826;2023-02-24T15:05:48;43.70;;;23.10;;
76357;SDS011;65185;21.060;105.826;2023-02-24T15:08:26;42.15;;;24.63;;
76357;SDS011;65185;21.060;105.826;2023-02-24T15:11:03;47.63;;;24.05;;
76357;SDS011;65185;21.060;105.826;2023-02-24T15:13:52;40.97;;;21.88;;
76357;SDS011;65185;21.060;105.826;2023-02-24T15:16:26;41.45;;;22.52;;
76357;SDS011;65185;21.060;105.826;2023-02-24T15:18:58;38.70;;;21.33;;
76357;SDS011;65185;21.060;105.826;2023-02-24T15:21:32;41.45;;;20.60;;
76357;SDS011;65185;21.060;105.826;2023-02-24T15:24:18;37.17;;;20.50;;
76357;SDS011;65185;21.060;105.826;2023-02-24T15:29:41;36.72;;;19.25;;
76357;SDS011;65185;21.060;105.826;2023-02-24T15:32:16;29.27;;;16.95;;
76357;SDS011;65185;21.060;105.826;2023-02-24T15:34:46;35.65;;;18.10;;
76357;SDS011;65185;21.060;105.826;2023-02-24T15:37:15;31.85;;;17.33;;
76357;SDS011;65185;21.060;105.826;2023-02-24T15:40:21;33.20;;;16.00;;
76357;SDS011;65185;21.060;105.826;2023-02-24T15:42:51;28.73;;;15.35;;
76357;SDS011;65185;21.060;105.826;2023-02-24T15:45:32;26.00;;;15.73;;
76357;SDS011;65185;21.060;105.826;2023-02-24T15:48:16;27.98;;;16.40;;
76357;SDS011;65185;21.060;105.826;2023-02-24T15:50:46;31.85;;;18.27;;
76357;SDS011;65185;21.060;105.826;2023-02-24T15:53:14;31.70;;;17.65;;
76357;SDS011;65185;21.060;105.826;2023-02-24T15:55:42;32.70;;;18.17;;
76357;SDS011;65185;21.060;105.826;2023-02-24T15:58:15;29.98;;;17.65;;
76357;SDS011;65185;21.060;105.826;2023-02-24T16:00:51;31.40;;;17.83;;
76357;SDS011;65185;21.060;105.826;2023-02-24T16:03:18;28.25;;;17.13;;
76357;SDS011;65185;21.060;105.826;2023-02-24T16:05:45;30.90;;;17.05;;
76357;SDS011;65185;21.060;105.826;2023-02-24T16:08:12;30.20;;;17.70;;
76357;SDS011;65185;21.060;105.826;2023-02-24T16:10:43;30.50;;;18.67;;
76357;SDS011;65185;21.060;105.826;2023-02-24T16:13:15;35.90;;;20.08;;
76357;SDS011;65185;21.060;105.826;2023-02-24T16:15:44;36.10;;;19.55;;
76357;SDS011;65185;21.060;105.826;2023-02-24T16:18:17;32.75;;;19.85;;
76357;SDS011;65185;21.060;105.826;2023-02-24T16:20:46;33.42;;;19.23;;
76357;SDS011;65185;21.060;105.826;2023-02-24T16:23:19;34.45;;;19.80;;
76357;SDS011;65185;21.060;105.826;2023-02-24T16:25:50;31.63;;;15.75;;
76357;SDS011;65185;21.060;105.826;2023-02-24T16:28:21;27.73;;;16.27;;
76357;SDS011;65185;21.060;105.826;2023-02-24T16:30:48;27.75;;;14.68;;
76357;SDS011;65185;21.060;105.826;2023-02-24T16:33:16;24.27;;;14.50;;
76357;SDS011;65185;21.060;105.826;2023-02-24T16:35:45;29.60;;;15.00;;
76357;SDS011;65185;21.060;105.826;2023-02-24T16:38:12;28.25;;;14.25;;
76357;SDS011;65185;21.060;105.826;2023-02-24T16:40:41;26.65;;;12.57;;
76357;SDS011;65185;21.060;105.826;2023-02-24T16:43:10;28.55;;;13.15;;
76357;SDS011;65185;21.060;105.826;2023-02-24T16:45:37;30.23;;;13.70;;
76357;SDS011;65185;21.060;105.826;2023-02-24T16:48:12;28.95;;;13.43;;
76357;SDS011;65185;21.060;105.826;2023-02-24T16:50:40;34.03;;;14.43;;
76357;SDS011;65185;21.060;105.826;2023-02-24T16:53:11;29.80;;;13.25;;
76357;SDS011;65185;21.060;105.826;2023-02-24T16:55:41;31.25;;;13.80;;
76357;SDS011;65185;21.060;105.826;2023-02-24T16:58:08;30.80;;;14.60;;
76357;SDS011;65185;21.060;105.826;2023-02-24T17:00:36;33.88;;;15.10;;
76357;SDS011;65185;21.060;105.826;2023-02-24T17:03:05;32.17;;;13.93;;
76357;SDS011;65185;21.060;105.826;2023-02-24T17:05:40;34.17;;;15.10;;
76357;SDS011;65185;21.060;105.826;2023-02-24T17:08:08;30.75;;;14.95;;
76357;SDS011;65185;21.060;105.826;2023-02-24T17:10:35;38.47;;;16.40;;
76357;SDS011;65185;21.060;105.826;2023-02-24T17:13:07;38.40;;;16.13;;
76357;SDS011;65185;21.060;105.826;2023-02-24T17:15:41;37.08;;;17.52;;
76357;SDS011;65185;21.060;105.826;2023-02-24T17:18:08;43.70;;;18.63;;
76357;SDS011;65185;21.060;105.826;2023-02-24T17:20:36;44.65;;;19.83;;
76357;SDS011;65185;21.060;105.826;2023-02-24T17:23:04;47.75;;;19.48;;
76357;SDS011;65185;21.060;105.826;2023-02-24T17:25:31;41.72;;;18.75;;